Time;durP1;ratioP1;P1;durP2;ratioP2;P2;SDS_P1;SDS_P2;PMS_P1;PMS_P2;Temp;Humidity;BMP_temperature;BMP_pressure;BME280_temperature;BME280_humidity;BME280_pressure;Samples;Min_cycle;Max_cycle;Signal;HPM_P1;HPM_P2
2022/11/01 00:01:56;;;;;;;7.17;5.63;;;;;;;;;;6154930;23;20195;-87
2022/11/01 00:04:25;;;;;;;6.17;4.10;;;;;;;;;;6154986;23;20341;-87
2022/11/01 00:06:53;;;;;;;9.53;5.63;;;;;;;;;;6155953;23;20175;-88
2022/11/01 00:09:22;;;;;;;15.13;6.33;;;;;;;;;;6155082;23;20200;-88
2022/11/01 00:11:52;;;;;;;8.43;5.47;;;;;;;;;;6155125;23;20223;-88
2022/11/01 00:14:20;;;;;;;10.43;6.67;;;;;;;;;;6154923;23;20269;-87
2022/11/01 00:16:49;;;;;;;12.40;6.73;;;;;;;;;;6154562;23;20178;-88
2022/11/01 00:19:17;;;;;;;7.97;5.90;;;;;;;;;;6155739;23;20178;-86
2022/11/01 00:21:46;;;;;;;8.57;5.60;;;;;;;;;;6156155;23;20174;-87
2022/11/01 00:24:14;;;;;;;7.67;6.03;;;;;;;;;;6154121;23;20178;-88
2022/11/01 00:26:43;;;;;;;9.87;5.17;;;;;;;;;;6154823;23;20177;-88
2022/11/01 00:29:13;;;;;;;9.53;5.23;;;;;;;;;;6154341;23;20205;-88
2022/11/01 00:31:41;;;;;;;16.50;8.47;;;;;;;;;;6154349;23;20176;-88
2022/11/01 00:34:10;;;;;;;6.77;5.47;;;;;;;;;;6154308;23;20206;-88
2022/11/01 00:36:38;;;;;;;9.00;5.70;;;;;;;;;;6154150;23;20210;-88
2022/11/01 00:39:07;;;;;;;8.77;5.90;;;;;;;;;;6155576;23;20226;-88
2022/11/01 00:41:38;;;;;;;9.07;5.57;;;;;;;;;;6154336;23;20209;-89
2022/11/01 00:44:06;;;;;;;8.10;5.83;;;;;;;;;;6154106;23;20197;-87
2022/11/01 00:46:36;;;;;;;7.80;4.87;;;;;;;;;;6154498;23;20209;-88
2022/11/01 00:49:04;;;;;;;13.27;6.93;;;;;;;;;;6154200;23;20174;-88
2022/11/01 00:51:33;;;;;;;8.80;6.40;;;;;;;;;;6154905;23;20175;-88
2022/11/01 00:54:01;;;;;;;9.20;5.63;;;;;;;;;;6154702;23;20181;-88
2022/11/01 00:56:30;;;;;;;16.27;5.97;;;;;;;;;;6155689;23;20202;-87
2022/11/01 00:58:58;;;;;;;16.43;5.93;;;;;;;;;;6154216;23;20178;-88
2022/11/01 01:01:26;;;;;;;9.70;6.83;;;;;;;;;;6155730;23;20229;-88
2022/11/01 01:03:56;;;;;;;11.10;6.13;;;;;;;;;;6154456;23;20256;-87
2022/11/01 01:06:25;;;;;;;14.87;7.93;;;;;;;;;;6154604;23;20202;-89
2022/11/01 01:08:53;;;;;;;7.67;5.17;;;;;;;;;;6155720;23;20169;-88
2022/11/01 01:11:22;;;;;;;10.83;6.93;;;;;;;;;;6154901;23;20177;-88
2022/11/01 01:13:50;;;;;;;6.60;3.77;;;;;;;;;;6155506;23;20167;-88
2022/11/01 01:16:19;;;;;;;7.60;5.27;;;;;;;;;;6155431;23;20203;-88
2022/11/01 01:18:47;;;;;;;8.80;6.53;;;;;;;;;;6154434;23;20181;-89
2022/11/01 01:21:17;;;;;;;15.47;6.53;;;;;;;;;;6155495;23;20203;-89
2022/11/01 01:23:47;;;;;;;11.20;6.37;;;;;;;;;;6155884;23;20197;-88
2022/11/01 01:26:15;;;;;;;10.17;6.00;;;;;;;;;;6155537;23;20175;-89
2022/11/01 01:28:44;;;;;;;7.37;5.07;;;;;;;;;;6154605;23;20182;-89
2022/11/01 01:31:12;;;;;;;7.87;5.87;;;;;;;;;;6153919;23;20177;-89
2022/11/01 01:33:41;;;;;;;8.03;5.60;;;;;;;;;;6153716;23;20180;-89
2022/11/01 01:36:10;;;;;;;13.03;7.83;;;;;;;;;;6156207;23;20237;-86
2022/11/01 01:38:39;;;;;;;10.60;6.33;;;;;;;;;;6157859;23;20233;-89
2022/11/01 01:43:54;;;;;;;7.33;5.87;;;;;;;;;;6155845;23;20205;-89
2022/11/01 01:46:22;;;;;;;12.13;6.07;;;;;;;;;;6155948;23;20183;-89
2022/11/01 01:48:53;;;;;;;9.13;5.40;;;;;;;;;;6157245;23;20176;-89
2022/11/01 01:51:24;;;;;;;7.37;6.30;;;;;;;;;;6156334;23;20182;-89
2022/11/01 01:53:57;;;;;;;11.73;6.57;;;;;;;;;;6157026;23;20220;-89
2022/11/01 01:56:28;;;;;;;8.50;5.60;;;;;;;;;;6155980;23;20188;-89
2022/11/01 01:59:00;;;;;;;11.40;6.33;;;;;;;;;;6155566;23;20202;-89
2022/11/01 02:01:29;;;;;;;10.67;6.00;;;;;;;;;;6156204;23;20179;-89
2022/11/01 02:03:57;;;;;;;6.13;5.00;;;;;;;;;;6155583;23;20499;-89
2022/11/01 02:06:26;;;;;;;10.50;6.53;;;;;;;;;;6155195;23;20177;-89
2022/11/01 02:08:57;;;;;;;7.63;6.27;;;;;;;;;;6155449;23;20179;-90
2022/11/01 02:11:25;;;;;;;13.90;6.90;;;;;;;;;;6156830;23;20179;-88
2022/11/01 02:13:53;;;;;;;6.97;4.77;;;;;;;;;;6155690;23;20178;-89
2022/11/01 02:16:28;;;;;;;9.97;7.50;;;;;;;;;;6156843;23;20174;-89
2022/11/01 02:18:59;;;;;;;6.67;5.63;;;;;;;;;;6156769;23;20177;-89
2022/11/01 02:21:42;;;;;;;7.23;4.43;;;;;;;;;;6157387;23;20221;-89
2022/11/01 02:24:25;;;;;;;12.53;6.70;;;;;;;;;;6157116;23;20186;-89
2022/11/01 02:27:00;;;;;;;10.53;7.50;;;;;;;;;;6155396;23;20181;-89
2022/11/01 02:29:51;;;;;;;10.43;5.60;;;;;;;;;;6157280;23;20205;-89
2022/11/01 02:32:23;;;;;;;7.97;5.57;;;;;;;;;;6155399;23;20229;-89
2022/11/01 02:34:56;;;;;;;10.87;4.73;;;;;;;;;;6155908;23;20230;-89
2022/11/01 02:37:28;;;;;;;11.30;7.10;;;;;;;;;;6155224;23;20209;-89
2022/11/01 02:40:01;;;;;;;8.77;5.57;;;;;;;;;;6156621;23;20171;-89
2022/11/01 02:42:32;;;;;;;5.47;4.73;;;;;;;;;;6155438;23;20250;-89
2022/11/01 02:45:02;;;;;;;4.57;3.90;;;;;;;;;;6156584;23;20250;-89
2022/11/01 02:47:32;;;;;;;11.43;7.07;;;;;;;;;;6155040;23;20233;-89
2022/11/01 02:50:01;;;;;;;9.50;8.20;;;;;;;;;;6155006;23;20194;-88
2022/11/01 02:52:32;;;;;;;9.07;7.37;;;;;;;;;;6155689;23;20178;-89
2022/11/01 02:55:01;;;;;;;9.57;6.10;;;;;;;;;;6155431;23;20288;-89
2022/11/01 02:57:33;;;;;;;8.50;6.77;;;;;;;;;;6156446;23;20175;-88
2022/11/01 03:00:03;;;;;;;5.90;4.77;;;;;;;;;;6155848;23;20178;-88
2022/11/01 03:02:40;;;;;;;8.80;5.73;;;;;;;;;;6155331;23;20182;-89
2022/11/01 03:05:09;;;;;;;7.07;4.60;;;;;;;;;;6155483;23;20234;-89
2022/11/01 03:07:39;;;;;;;9.70;6.73;;;;;;;;;;6155151;23;20210;-89
2022/11/01 03:10:08;;;;;;;3.47;3.17;;;;;;;;;;6155085;23;20180;-88
2022/11/01 03:12:39;;;;;;;6.27;4.53;;;;;;;;;;6155316;23;20220;-88
2022/11/01 03:15:19;;;;;;;12.80;4.63;;;;;;;;;;6155270;23;20175;-88
2022/11/01 03:17:51;;;;;;;6.57;4.03;;;;;;;;;;6156735;23;20175;-88
2022/11/01 03:20:23;;;;;;;4.80;2.80;;;;;;;;;;6155255;23;20209;-88
2022/11/01 03:22:55;;;;;;;6.37;2.47;;;;;;;;;;6155269;23;20175;-88
2022/11/01 03:25:39;;;;;;;4.90;2.07;;;;;;;;;;6155367;23;20190;-89
2022/11/01 03:28:12;;;;;;;2.10;1.90;;;;;;;;;;6154668;23;20182;-89
2022/11/01 03:30:43;;;;;;;5.17;2.77;;;;;;;;;;6156495;23;20245;-88
2022/11/01 03:33:14;;;;;;;3.83;1.90;;;;;;;;;;6156311;23;20173;-88
2022/11/01 03:35:45;;;;;;;4.40;2.43;;;;;;;;;;6155340;23;20177;-88
2022/11/01 03:38:14;;;;;;;3.13;1.90;;;;;;;;;;6154850;23;20209;-88
2022/11/01 03:40:45;;;;;;;2.00;1.83;;;;;;;;;;6154850;23;20196;-88
2022/11/01 03:43:14;;;;;;;2.23;1.53;;;;;;;;;;6155178;23;20236;-88
2022/11/01 03:45:43;;;;;;;3.27;2.10;;;;;;;;;;6155239;23;20281;-88
2022/11/01 03:48:13;;;;;;;1.50;1.40;;;;;;;;;;6154744;23;20179;-88
2022/11/01 03:50:47;;;;;;;2.97;1.60;;;;;;;;;;6156356;23;20239;-88
2022/11/01 03:53:15;;;;;;;0.80;0.80;;;;;;;;;;6154866;23;20214;-88
2022/11/01 03:55:43;;;;;;;2.57;1.53;;;;;;;;;;6180052;23;20202;-88
2022/11/01 03:58:12;;;;;;;2.13;1.70;;;;;;;;;;6155251;23;20183;-88
2022/11/01 04:00:41;;;;;;;6.90;2.13;;;;;;;;;;6155084;23;20178;-88
2022/11/01 04:03:10;;;;;;;6.87;2.50;;;;;;;;;;6155904;23;20190;-88
2022/11/01 04:05:41;;;;;;;9.03;4.00;;;;;;;;;;6154853;23;20201;-88
2022/11/01 04:08:10;;;;;;;6.87;2.30;;;;;;;;;;6155823;23;20232;-88
2022/11/01 04:10:39;;;;;;;5.67;2.27;;;;;;;;;;6155184;23;20178;-88
2022/11/01 04:13:07;;;;;;;4.20;2.37;;;;;;;;;;6154649;23;20218;-88
2022/11/01 04:21:11;;;;;;;5.63;2.27;;;;;;;;;;6154599;23;20181;-88
2022/11/01 04:23:39;;;;;;;13.47;3.60;;;;;;;;;;6156029;23;20228;-88
2022/11/01 04:26:08;;;;;;;5.70;1.80;;;;;;;;;;6154312;23;20202;-89
2022/11/01 04:28:36;;;;;;;1.50;1.07;;;;;;;;;;6154309;23;20176;-87
2022/11/01 04:31:05;;;;;;;2.63;1.90;;;;;;;;;;6154527;23;20248;-88
2022/11/01 04:33:33;;;;;;;5.07;1.67;;;;;;;;;;6154950;23;20491;-88
2022/11/01 04:36:05;;;;;;;5.40;1.47;;;;;;;;;;6179288;23;20179;-88
2022/11/01 04:38:35;;;;;;;7.47;2.50;;;;;;;;;;6154364;23;20209;-88
2022/11/01 04:41:03;;;;;;;1.53;0.90;;;;;;;;;;6155715;23;20169;-88
2022/11/01 04:43:31;;;;;;;3.67;0.87;;;;;;;;;;6154754;23;20181;-88
2022/11/01 04:46:00;;;;;;;6.87;1.70;;;;;;;;;;6154545;23;20193;-88
2022/11/01 04:48:28;;;;;;;2.27;1.10;;;;;;;;;;6154309;23;20178;-88
2022/11/01 04:50:57;;;;;;;3.73;1.77;;;;;;;;;;6154318;23;20205;-88
2022/11/01 04:53:25;;;;;;;4.80;2.37;;;;;;;;;;6154371;23;20181;-88
2022/11/01 04:55:55;;;;;;;2.97;1.80;;;;;;;;;;6155029;23;20286;-88
2022/11/01 04:58:24;;;;;;;7.30;2.73;;;;;;;;;;6154636;23;20208;-88
2022/11/01 05:00:52;;;;;;;6.70;1.83;;;;;;;;;;6154275;23;20174;-87
2022/11/01 05:03:21;;;;;;;5.27;2.30;;;;;;;;;;6153989;23;20235;-88
2022/11/01 05:05:49;;;;;;;7.17;2.53;;;;;;;;;;6154441;23;20192;-88
2022/11/01 05:08:18;;;;;;;5.77;1.70;;;;;;;;;;6155401;23;20176;-89
2022/11/01 05:10:46;;;;;;;7.80;1.93;;;;;;;;;;6157054;23;20184;-88
2022/11/01 05:13:16;;;;;;;7.93;3.47;;;;;;;;;;6156448;23;20183;-88
2022/11/01 05:15:44;;;;;;;5.87;2.70;;;;;;;;;;6180969;23;20173;-88
2022/11/01 05:18:32;;;;;;;11.93;2.93;;;;;;;;;;6155919;23;20262;-88
2022/11/01 05:21:01;;;;;;;11.93;3.03;;;;;;;;;;6157352;23;20180;-87
2022/11/01 05:23:29;;;;;;;9.83;2.93;;;;;;;;;;6156281;23;20199;-88
2022/11/01 05:25:57;;;;;;;4.80;2.03;;;;;;;;;;6157734;23;20234;-88
2022/11/01 05:28:27;;;;;;;10.67;3.93;;;;;;;;;;6156314;23;20172;-88
2022/11/01 05:30:56;;;;;;;5.63;3.10;;;;;;;;;;6181557;23;20180;-88
2022/11/01 05:33:24;;;;;;;9.30;2.80;;;;;;;;;;6156045;23;20209;-88
2022/11/01 05:35:53;;;;;;;14.80;3.27;;;;;;;;;;6156486;23;20184;-88
2022/11/01 05:38:21;;;;;;;11.73;3.03;;;;;;;;;;6155793;23;20209;-87
2022/11/01 05:40:50;;;;;;;7.90;3.47;;;;;;;;;;6156216;23;20214;-88
2022/11/01 05:43:18;;;;;;;3.27;2.17;;;;;;;;;;6156337;23;20189;-88
2022/11/01 05:45:48;;;;;;;6.60;2.63;;;;;;;;;;6157308;23;20220;-88
2022/11/01 05:48:16;;;;;;;9.17;2.70;;;;;;;;;;6157486;23;20174;-88
2022/11/01 05:50:45;;;;;;;5.23;2.50;;;;;;;;;;6155908;23;20184;-88
2022/11/01 05:53:14;;;;;;;7.30;2.23;;;;;;;;;;6157061;23;20178;-88
2022/11/01 05:55:42;;;;;;;6.27;2.53;;;;;;;;;;6156403;23;20205;-87
2022/11/01 05:58:11;;;;;;;6.30;2.47;;;;;;;;;;6156918;23;20171;-88
2022/11/01 06:00:39;;;;;;;6.13;2.07;;;;;;;;;;6157583;23;20295;-88
2022/11/01 06:03:09;;;;;;;11.47;3.13;;;;;;;;;;6155701;23;20227;-88
2022/11/01 06:05:38;;;;;;;6.33;2.93;;;;;;;;;;6155684;23;20196;-88
2022/11/01 06:08:06;;;;;;;8.33;2.57;;;;;;;;;;6155652;23;20259;-88
2022/11/01 06:10:35;;;;;;;9.63;1.90;;;;;;;;;;6155794;23;20181;-88
2022/11/01 06:13:03;;;;;;;7.13;2.33;;;;;;;;;;6155611;23;20223;-88
2022/11/01 06:15:32;;;;;;;10.20;1.57;;;;;;;;;;6155589;23;20170;-88
2022/11/01 06:18:07;;;;;;;6.40;1.97;;;;;;;;;;6155882;23;20213;-89
2022/11/01 06:20:37;;;;;;;9.73;3.67;;;;;;;;;;6156801;23;20187;-89
2022/11/01 06:23:09;;;;;;;7.30;3.23;;;;;;;;;;6156463;23;20176;-90
2022/11/01 06:25:38;;;;;;;11.87;3.93;;;;;;;;;;6155872;23;20227;-88
2022/11/01 06:28:06;;;;;;;5.23;1.83;;;;;;;;;;6156766;23;20193;-89
2022/11/01 06:30:37;;;;;;;2.50;1.30;;;;;;;;;;6157083;23;20173;-88
2022/11/01 06:33:08;;;;;;;9.93;2.67;;;;;;;;;;6156881;23;20178;-88
2022/11/01 06:35:38;;;;;;;12.93;4.10;;;;;;;;;;6157068;23;20176;-88
2022/11/01 06:38:07;;;;;;;16.63;4.50;;;;;;;;;;6156945;23;20227;-87
2022/11/01 06:40:36;;;;;;;8.63;3.20;;;;;;;;;;6155280;23;20184;-88
2022/11/01 06:43:05;;;;;;;4.80;1.37;;;;;;;;;;6155551;23;20196;-87
2022/11/01 06:45:34;;;;;;;8.83;2.10;;;;;;;;;;6155494;23;20243;-88
2022/11/01 06:48:02;;;;;;;4.47;3.10;;;;;;;;;;6155148;23;20176;-88
2022/11/01 06:50:31;;;;;;;9.33;3.03;;;;;;;;;;6155204;23;20178;-88
2022/11/01 06:53:01;;;;;;;14.53;3.07;;;;;;;;;;6155521;23;20184;-88
2022/11/01 06:55:30;;;;;;;10.63;3.83;;;;;;;;;;6155099;23;20260;-82
2022/11/01 06:58:00;;;;;;;15.57;3.50;;;;;;;;;;6157038;23;20256;-82
2022/11/01 07:00:29;;;;;;;11.17;3.97;;;;;;;;;;6155363;23;20187;-82
2022/11/01 07:02:59;;;;;;;6.90;2.33;;;;;;;;;;6155264;23;20199;-81
2022/11/01 07:05:27;;;;;;;17.87;3.17;;;;;;;;;;6154820;23;20178;-82
2022/11/01 07:08:06;;;;;;;13.37;3.80;;;;;;;;;;6156243;23;20175;-82
2022/11/01 07:10:36;;;;;;;10.87;3.93;;;;;;;;;;6155188;23;20183;-79
2022/11/01 07:13:05;;;;;;;16.13;5.17;;;;;;;;;;6155158;23;20177;-80
2022/11/01 07:15:34;;;;;;;8.90;3.40;;;;;;;;;;6154736;23;20183;-79
2022/11/01 07:18:04;;;;;;;10.77;3.27;;;;;;;;;;6155513;23;20212;-79
2022/11/01 07:20:40;;;;;;;12.70;4.37;;;;;;;;;;6154746;23;20185;-79
2022/11/01 07:23:12;;;;;;;9.17;2.50;;;;;;;;;;6155211;23;20255;-79
2022/11/01 07:25:40;;;;;;;8.07;3.13;;;;;;;;;;6155287;23;20215;-79
2022/11/01 07:28:09;;;;;;;14.80;3.87;;;;;;;;;;6155113;23;20238;-79
2022/11/01 07:30:38;;;;;;;5.77;2.30;;;;;;;;;;6156194;23;20234;-79
2022/11/01 07:33:06;;;;;;;18.30;3.87;;;;;;;;;;6154997;23;20187;-79
2022/11/01 07:35:35;;;;;;;9.93;2.33;;;;;;;;;;6154515;23;20203;-78
2022/11/01 07:38:04;;;;;;;4.03;2.07;;;;;;;;;;6154734;23;20214;-80
2022/11/01 07:40:40;;;;;;;7.87;2.60;;;;;;;;;;6154996;23;20204;-80
2022/11/01 07:43:09;;;;;;;4.53;2.00;;;;;;;;;;6156395;23;20174;-79
2022/11/01 07:45:37;;;;;;;6.13;2.23;;;;;;;;;;6154461;23;20188;-80
2022/11/01 07:48:09;;;;;;;6.63;2.67;;;;;;;;;;6155098;23;20200;-80
2022/11/01 07:50:38;;;;;;;7.17;3.13;;;;;;;;;;6154694;23;20212;-80
2022/11/01 07:53:07;;;;;;;6.50;3.17;;;;;;;;;;6154846;23;20180;-79
2022/11/01 07:55:37;;;;;;;4.90;1.80;;;;;;;;;;6156380;23;20227;-80
2022/11/01 07:58:07;;;;;;;3.73;1.87;;;;;;;;;;6156228;23;20179;-80
2022/11/01 08:00:36;;;;;;;7.53;3.17;;;;;;;;;;6154995;23;20183;-80
2022/11/01 08:03:05;;;;;;;7.60;2.20;;;;;;;;;;6154910;23;20212;-80
2022/11/01 08:05:38;;;;;;;16.73;2.87;;;;;;;;;;6153636;23;20177;-80
2022/11/01 08:08:07;;;;;;;7.90;1.77;;;;;;;;;;6154541;23;20193;-80
2022/11/01 08:10:36;;;;;;;11.47;3.43;;;;;;;;;;6153596;23;20188;-80
2022/11/01 08:13:07;;;;;;;8.77;2.77;;;;;;;;;;6151715;23;20183;-80
2022/11/01 08:15:36;;;;;;;6.73;3.50;;;;;;;;;;6149525;23;20181;-81
2022/11/01 08:18:05;;;;;;;17.33;2.97;;;;;;;;;;6152569;23;20186;-79
2022/11/01 08:20:36;;;;;;;9.93;2.10;;;;;;;;;;6152168;23;20177;-79
2022/11/01 08:23:05;;;;;;;15.10;3.43;;;;;;;;;;6153929;23;20188;-80
2022/11/01 08:25:34;;;;;;;15.37;3.83;;;;;;;;;;6153009;23;20177;-78
2022/11/01 08:28:04;;;;;;;9.40;2.03;;;;;;;;;;6178418;23;20201;-79
2022/11/01 08:30:34;;;;;;;14.67;5.37;;;;;;;;;;6152817;23;20185;-79
2022/11/01 08:33:03;;;;;;;1.80;1.30;;;;;;;;;;6150816;23;20185;-79
2022/11/01 08:35:33;;;;;;;9.13;3.07;;;;;;;;;;6151399;23;20185;-78
2022/11/01 08:38:02;;;;;;;11.70;3.60;;;;;;;;;;6151119;23;20210;-81
2022/11/01 08:40:32;;;;;;;8.43;3.27;;;;;;;;;;6127068;23;20250;-79
2022/11/01 08:43:01;;;;;;;10.43;2.57;;;;;;;;;;6151413;23;20189;-79
2022/11/01 08:45:30;;;;;;;8.13;2.57;;;;;;;;;;6151423;23;20217;-78
2022/11/01 08:48:02;;;;;;;8.13;3.20;;;;;;;;;;6150940;23;20197;-80
2022/11/01 08:50:31;;;;;;;9.33;2.50;;;;;;;;;;6150526;23;20220;-80
2022/11/01 08:53:00;;;;;;;8.60;2.57;;;;;;;;;;6151737;23;20192;-78
2022/11/01 08:55:29;;;;;;;11.43;2.73;;;;;;;;;;6151294;23;20177;-79
2022/11/01 08:58:04;;;;;;;12.77;2.67;;;;;;;;;;6150601;23;20187;-79
2022/11/01 09:00:34;;;;;;;9.07;3.33;;;;;;;;;;6152489;23;20209;-78
2022/11/01 09:03:05;;;;;;;4.73;2.27;;;;;;;;;;6151516;23;20180;-79
2022/11/01 09:05:34;;;;;;;5.63;2.10;;;;;;;;;;6152104;23;20182;-79
2022/11/01 09:08:03;;;;;;;5.00;2.27;;;;;;;;;;6151050;23;20197;-80
2022/11/01 09:10:32;;;;;;;8.97;2.77;;;;;;;;;;6177163;23;20242;-80
2022/11/01 09:13:02;;;;;;;10.07;2.70;;;;;;;;;;6151391;23;20191;-81
2022/11/01 09:15:31;;;;;;;6.07;1.87;;;;;;;;;;6151013;23;20189;-77
2022/11/01 09:18:05;;;;;;;4.90;1.23;;;;;;;;;;6151271;23;20205;-78
2022/11/01 09:20:37;;;;;;;16.63;1.83;;;;;;;;;;6150179;23;20193;-79
2022/11/01 09:23:08;;;;;;;5.00;1.87;;;;;;;;;;6152100;23;20186;-79
2022/11/01 09:25:39;;;;;;;7.20;3.63;;;;;;;;;;6152632;23;20179;-78
2022/11/01 09:28:08;;;;;;;3.43;1.77;;;;;;;;;;6151902;23;20279;-79
2022/11/01 09:30:36;;;;;;;6.40;1.93;;;;;;;;;;6151200;23;20274;-79
2022/11/01 09:33:25;;;;;;;8.10;2.10;;;;;;;;;;6152019;23;20182;-80
2022/11/01 09:35:55;;;;;;;6.07;1.40;;;;;;;;;;6151438;23;20183;-80
2022/11/01 09:38:27;;;;;;;6.00;3.27;;;;;;;;;;6151550;23;20242;-80
2022/11/01 09:41:00;;;;;;;18.10;2.60;;;;;;;;;;6151974;23;20183;-80
2022/11/01 09:43:31;;;;;;;10.97;2.67;;;;;;;;;;6147846;23;20184;-81
2022/11/01 09:46:01;;;;;;;3.57;1.60;;;;;;;;;;6151077;23;20219;-79
2022/11/01 09:48:30;;;;;;;6.63;2.47;;;;;;;;;;6151305;23;20229;-78
2022/11/01 09:51:03;;;;;;;8.37;2.43;;;;;;;;;;6151710;23;20178;-79
2022/11/01 09:53:32;;;;;;;9.70;3.37;;;;;;;;;;6152085;23;20181;-78
2022/11/01 09:56:04;;;;;;;10.43;2.67;;;;;;;;;;6150707;23;20189;-81
2022/11/01 09:58:37;;;;;;;7.47;2.97;;;;;;;;;;6152804;23;20180;-79
2022/11/01 10:01:14;;;;;;;10.77;3.43;;;;;;;;;;6152756;23;20181;-78
2022/11/01 10:03:54;;;;;;;11.13;3.10;;;;;;;;;;6153436;23;20226;-79
2022/11/01 10:06:24;;;;;;;4.57;2.33;;;;;;;;;;6152552;23;20187;-79
2022/11/01 10:08:58;;;;;;;2.80;1.53;;;;;;;;;;6153654;23;20299;-80
2022/11/01 10:11:37;;;;;;;8.17;2.33;;;;;;;;;;6153285;23;20213;-80
2022/11/01 10:14:11;;;;;;;9.77;3.83;;;;;;;;;;6153154;23;20539;-80
2022/11/01 10:16:41;;;;;;;9.30;2.30;;;;;;;;;;6153179;23;20191;-79
2022/11/01 10:19:13;;;;;;;3.33;1.53;;;;;;;;;;6153252;23;20228;-79
2022/11/01 10:21:45;;;;;;;12.67;3.00;;;;;;;;;;6152383;23;20231;-80
2022/11/01 10:24:18;;;;;;;6.57;2.67;;;;;;;;;;6153848;23;20185;-78
2022/11/01 10:26:49;;;;;;;8.97;2.60;;;;;;;;;;6154780;23;20172;-78
2022/11/01 10:29:21;;;;;;;10.03;3.00;;;;;;;;;;6178573;23;20207;-80
2022/11/01 10:31:51;;;;;;;5.97;2.37;;;;;;;;;;6154886;23;20187;-78
2022/11/01 10:34:23;;;;;;;7.53;2.53;;;;;;;;;;6151123;23;20264;-80
2022/11/01 10:36:55;;;;;;;4.90;2.90;;;;;;;;;;6141272;23;20198;-78
2022/11/01 10:39:32;;;;;;;9.33;2.93;;;;;;;;;;6144583;23;20242;-79
2022/11/01 10:42:23;;;;;;;8.33;2.90;;;;;;;;;;6144936;23;20201;-79
2022/11/01 10:44:54;;;;;;;9.97;2.60;;;;;;;;;;6144521;23;20201;-78
2022/11/01 10:47:35;;;;;;;3.93;1.43;;;;;;;;;;6149928;23;20199;-78
2022/11/01 10:50:06;;;;;;;10.13;3.63;;;;;;;;;;6149471;23;20199;-80
2022/11/01 10:52:43;;;;;;;4.73;1.67;;;;;;;;;;6149202;23;20197;-78
2022/11/01 10:55:13;;;;;;;8.13;2.93;;;;;;;;;;6150014;23;20193;-78
2022/11/01 10:57:44;;;;;;;13.00;2.70;;;;;;;;;;6148804;23;20212;-77
2022/11/01 11:00:17;;;;;;;1.30;1.20;;;;;;;;;;6150482;23;20212;-77
2022/11/01 11:02:47;;;;;;;13.13;3.53;;;;;;;;;;6151655;23;20249;-77
2022/11/01 11:05:16;;;;;;;10.90;2.30;;;;;;;;;;6150983;23;20233;-77
2022/11/01 11:07:46;;;;;;;3.13;2.00;;;;;;;;;;6148755;23;20199;-77
2022/11/01 11:10:20;;;;;;;8.57;2.60;;;;;;;;;;6148865;23;20202;-78
2022/11/01 11:12:53;;;;;;;9.50;2.80;;;;;;;;;;6148298;23;20203;-77
2022/11/01 11:15:23;;;;;;;10.50;2.40;;;;;;;;;;6149319;23;20197;-80
2022/11/01 11:17:55;;;;;;;5.93;2.37;;;;;;;;;;6148284;23;20197;-79
2022/11/01 11:20:26;;;;;;;12.57;2.33;;;;;;;;;;6146146;23;20273;-80
2022/11/01 11:23:02;;;;;;;2.37;1.03;;;;;;;;;;6146939;23;20179;-78
2022/11/01 11:25:34;;;;;;;1.60;0.90;;;;;;;;;;6150946;23;20178;-80
2022/11/01 11:28:04;;;;;;;3.87;1.37;;;;;;;;;;6147915;23;20213;-81
2022/11/01 11:30:37;;;;;;;11.93;3.13;;;;;;;;;;6150387;23;20179;-80
2022/11/01 11:33:06;;;;;;;10.73;1.70;;;;;;;;;;6150042;23;20190;-80
2022/11/01 11:35:44;;;;;;;4.23;2.60;;;;;;;;;;6147338;23;20189;-79
2022/11/01 11:38:15;;;;;;;8.83;1.97;;;;;;;;;;6152500;23;20208;-78
2022/11/01 11:40:44;;;;;;;9.97;2.70;;;;;;;;;;6153179;23;20190;-79
2022/11/01 11:43:21;;;;;;;3.10;1.27;;;;;;;;;;6152625;23;20202;-78
2022/11/01 11:46:03;;;;;;;6.97;2.70;;;;;;;;;;6151482;23;20182;-81
2022/11/01 11:48:32;;;;;;;7.27;2.47;;;;;;;;;;6151988;23;20194;-79
2022/11/01 11:51:02;;;;;;;3.00;1.53;;;;;;;;;;6152699;23;20273;-79
2022/11/01 11:53:34;;;;;;;10.33;3.20;;;;;;;;;;6153089;23;20179;-79
2022/11/01 11:56:05;;;;;;;2.90;2.00;;;;;;;;;;6153423;23;20178;-80
2022/11/01 11:58:35;;;;;;;4.43;1.27;;;;;;;;;;6152728;23;20278;-80
2022/11/01 12:01:08;;;;;;;3.83;1.53;;;;;;;;;;6152938;23;20178;-79
2022/11/01 12:03:45;;;;;;;5.30;1.77;;;;;;;;;;6152444;23;20238;-79
2022/11/01 12:06:19;;;;;;;6.97;1.87;;;;;;;;;;6153320;23;20204;-78
2022/11/01 12:08:50;;;;;;;4.33;2.00;;;;;;;;;;6152464;23;20231;-80
2022/11/01 12:11:19;;;;;;;3.40;1.80;;;;;;;;;;6153172;23;20179;-79
2022/11/01 12:14:00;;;;;;;10.57;2.63;;;;;;;;;;6152356;23;20188;-78
2022/11/01 12:16:29;;;;;;;4.57;1.50;;;;;;;;;;6152487;23;20181;-79
2022/11/01 12:18:58;;;;;;;10.60;2.70;;;;;;;;;;6152613;23;20294;-81
2022/11/01 12:21:29;;;;;;;13.03;4.27;;;;;;;;;;6150621;23;20195;-80
2022/11/01 12:24:05;;;;;;;1.57;1.03;;;;;;;;;;6152067;23;20187;-81
2022/11/01 12:26:35;;;;;;;6.77;1.70;;;;;;;;;;6154126;23;20182;-80
2022/11/01 12:29:07;;;;;;;3.97;1.60;;;;;;;;;;6152253;23;20206;-80
2022/11/01 12:31:49;;;;;;;3.43;1.67;;;;;;;;;;6152261;23;20245;-80
2022/11/01 12:34:20;;;;;;;3.67;1.97;;;;;;;;;;6151213;23;20293;-83
2022/11/01 12:36:51;;;;;;;9.03;2.00;;;;;;;;;;6152516;23;20184;-84
2022/11/01 12:39:35;;;;;;;3.33;1.80;;;;;;;;;;6152010;23;20265;-82
2022/11/01 12:42:04;;;;;;;4.77;1.50;;;;;;;;;;6151768;23;20273;-82
2022/11/01 12:44:40;;;;;;;3.80;1.53;;;;;;;;;;6151641;23;20186;-81
2022/11/01 12:47:11;;;;;;;2.53;1.20;;;;;;;;;;6152392;23;20264;-81
2022/11/01 12:49:45;;;;;;;0.70;0.70;;;;;;;;;;6151807;23;20221;-80
2022/11/01 12:52:18;;;;;;;5.20;1.23;;;;;;;;;;6151186;23;20193;-80
2022/11/01 12:54:56;;;;;;;3.20;1.30;;;;;;;;;;6153001;23;20181;-80
2022/11/01 12:57:28;;;;;;;1.53;1.07;;;;;;;;;;6154230;23;20185;-80
2022/11/01 12:59:59;;;;;;;2.00;1.70;;;;;;;;;;6153637;23;20171;-81
2022/11/01 13:02:35;;;;;;;8.07;1.87;;;;;;;;;;6147403;23;20191;-81
2022/11/01 13:05:06;;;;;;;4.47;1.63;;;;;;;;;;6147716;23;20288;-82
2022/11/01 13:07:45;;;;;;;6.13;2.07;;;;;;;;;;6148848;23;20182;-82
2022/11/01 13:10:31;;;;;;;3.53;1.33;;;;;;;;;;6150371;23;20196;-83
2022/11/01 13:13:12;;;;;;;4.93;2.37;;;;;;;;;;6150462;23;20269;-83
2022/11/01 13:15:46;;;;;;;6.83;1.67;;;;;;;;;;6152668;23;20199;-81
2022/11/01 13:18:20;;;;;;;5.97;2.20;;;;;;;;;;6147856;23;20260;-81
2022/11/01 13:20:56;;;;;;;5.70;2.43;;;;;;;;;;6149095;23;20186;-81
2022/11/01 13:23:28;;;;;;;5.03;1.63;;;;;;;;;;6150434;23;20217;-81
2022/11/01 13:26:02;;;;;;;4.17;2.20;;;;;;;;;;6150305;23;20183;-78
2022/11/01 13:28:49;;;;;;;3.63;1.43;;;;;;;;;;6149947;23;20177;-83
2022/11/01 13:31:29;;;;;;;4.07;1.20;;;;;;;;;;6150324;23;20176;-81
2022/11/01 13:34:01;;;;;;;1.30;1.20;;;;;;;;;;6155140;23;20176;-81
2022/11/01 13:39:21;;;;;;;5.57;1.50;;;;;;;;;;6155666;23;20211;-81
2022/11/01 13:41:55;;;;;;;1.73;1.40;;;;;;;;;;6155384;23;20175;-81
2022/11/01 13:44:26;;;;;;;6.60;2.17;;;;;;;;;;6155731;23;20179;-81
2022/11/01 13:47:15;;;;;;;6.50;2.30;;;;;;;;;;6155511;23;20189;-81
2022/11/01 13:49:54;;;;;;;1.93;1.60;;;;;;;;;;6155710;23;20253;-81
2022/11/01 13:52:28;;;;;;;1.77;1.27;;;;;;;;;;6155797;23;20186;-81
2022/11/01 13:55:02;;;;;;;4.87;1.93;;;;;;;;;;6155838;23;20186;-81
2022/11/01 13:57:33;;;;;;;7.27;1.80;;;;;;;;;;6155751;23;20183;-81
2022/11/01 14:00:02;;;;;;;5.07;1.57;;;;;;;;;;6155483;23;20178;-81
2022/11/01 14:02:56;;;;;;;4.10;1.60;;;;;;;;;;6155557;23;20214;-81
2022/11/01 14:05:38;;;;;;;2.80;1.40;;;;;;;;;;6155765;23;20264;-81
2022/11/01 14:08:26;;;;;;;5.73;1.37;;;;;;;;;;6155144;23;20197;-82
2022/11/01 14:10:55;;;;;;;3.27;2.03;;;;;;;;;;6155510;23;20289;-82
2022/11/01 14:13:32;;;;;;;11.73;1.90;;;;;;;;;;6155858;23;20187;-82
2022/11/01 14:16:02;;;;;;;3.60;2.17;;;;;;;;;;6155570;23;20185;-81
2022/11/01 14:18:52;;;;;;;8.83;2.00;;;;;;;;;;6155276;23;20187;-81
2022/11/01 14:21:27;;;;;;;5.73;2.17;;;;;;;;;;6155124;23;20178;-81
2022/11/01 14:24:01;;;;;;;5.73;1.53;;;;;;;;;;6155235;23;20185;-81
2022/11/01 14:26:35;;;;;;;4.37;1.80;;;;;;;;;;6156139;23;20186;-81
2022/11/01 14:29:10;;;;;;;7.63;2.03;;;;;;;;;;6155128;23;20212;-81
2022/11/01 14:31:40;;;;;;;2.23;1.47;;;;;;;;;;6155103;23;20198;-81
2022/11/01 14:34:10;;;;;;;10.70;2.30;;;;;;;;;;6155003;23;20187;-82
2022/11/01 14:36:44;;;;;;;2.33;1.37;;;;;;;;;;6154754;23;20186;-81
2022/11/01 14:39:16;;;;;;;3.00;1.73;;;;;;;;;;6154930;23;20211;-81
2022/11/01 14:41:45;;;;;;;6.93;2.33;;;;;;;;;;6154280;23;20178;-81
2022/11/01 14:44:18;;;;;;;2.80;1.53;;;;;;;;;;6154485;23;20187;-80
2022/11/01 14:46:55;;;;;;;7.67;2.40;;;;;;;;;;6154213;23;20269;-82
2022/11/01 14:49:33;;;;;;;10.33;3.93;;;;;;;;;;6151606;23;20182;-85
2022/11/01 14:52:05;;;;;;;4.17;1.17;;;;;;;;;;6155275;23;20204;-85
2022/11/01 14:54:47;;;;;;;9.90;4.33;;;;;;;;;;6155551;23;20174;-84
2022/11/01 14:57:24;;;;;;;5.17;2.93;;;;;;;;;;6155588;23;20182;-85
2022/11/01 14:59:55;;;;;;;7.27;2.30;;;;;;;;;;6153046;23;20225;-84
2022/11/01 15:02:24;;;;;;;4.10;2.33;;;;;;;;;;6155449;23;20208;-85
2022/11/01 15:04:58;;;;;;;5.57;2.80;;;;;;;;;;6155202;23;20199;-84
2022/11/01 15:07:32;;;;;;;5.87;2.27;;;;;;;;;;6155023;23;20185;-84
2022/11/01 15:10:03;;;;;;;9.37;3.13;;;;;;;;;;6155239;23;20222;-84
2022/11/01 15:12:47;;;;;;;6.03;2.33;;;;;;;;;;6155237;23;20176;-85
2022/11/01 15:15:20;;;;;;;8.10;2.90;;;;;;;;;;6155260;23;20185;-84
2022/11/01 15:17:54;;;;;;;11.50;3.20;;;;;;;;;;6155171;23;20202;-84